createdAt,value
2023-01-07T00:01:51.998Z,92.46
2023-01-07T00:04:21.788Z,92.27
2023-01-07T00:06:52.851Z,92.18
2023-01-07T00:09:22.503Z,92.08
2023-01-07T00:11:51.734Z,92.18
2023-01-07T00:14:21.200Z,92.28
2023-01-07T00:16:50.413Z,92.16
2023-01-07T00:19:21.873Z,92.02
2023-01-07T00:21:51.155Z,91.83
2023-01-07T00:24:21.091Z,91.73
2023-01-07T00:26:50.306Z,91.54
2023-01-07T00:29:21.314Z,91.62
2023-01-07T00:31:50.586Z,91.94
2023-01-07T00:34:21.647Z,91.68
2023-01-07T00:36:50.939Z,91.46
2023-01-07T00:39:21.837Z,91.02
2023-01-07T00:42:10.939Z,91.18
2023-01-07T00:44:40.490Z,91.25
2023-01-07T00:47:09.723Z,91.42
2023-01-07T00:49:39.036Z,91.53
2023-01-07T00:52:08.520Z,91.49
2023-01-07T00:54:37.724Z,91.45
2023-01-07T00:57:07.210Z,91.59
2023-01-07T00:59:36.797Z,91.54
2023-01-07T01:02:06.552Z,91.06
2023-01-07T01:04:35.959Z,91.06
2023-01-07T01:07:06.457Z,90.92
2023-01-07T01:09:37.157Z,90.74
2023-01-07T01:12:06.905Z,90.83
2023-01-07T01:14:36.115Z,90.76
2023-01-07T01:17:05.366Z,90.57
2023-01-07T01:19:34.779Z,90.59
2023-01-07T01:22:03.989Z,90.67
2023-01-07T01:24:33.428Z,90.51
2023-01-07T01:27:03.537Z,90.31
2023-01-07T01:29:33.102Z,90.39
2023-01-07T01:32:02.409Z,90.13
2023-01-07T01:34:32.438Z,90.35
2023-01-07T01:37:01.830Z,90.20
2023-01-07T01:39:31.367Z,90.17
2023-01-07T01:42:01.016Z,90.22
2023-01-07T01:44:37.329Z,90.12
2023-01-07T01:47:28.751Z,90.57
2023-01-07T01:50:07.547Z,90.42
2023-01-07T01:52:40.018Z,90.75
2023-01-07T01:55:09.214Z,90.91
2023-01-07T01:57:40.620Z,91.21
2023-01-07T02:00:12.490Z,91.12
2023-01-07T02:02:49.077Z,91.20
2023-01-07T02:05:18.644Z,91.12
2023-01-07T02:07:48.216Z,91.44
2023-01-07T02:10:21.295Z,91.49
2023-01-07T02:13:20.872Z,91.16
2023-01-07T02:15:59.419Z,91.21
2023-01-07T02:18:35.226Z,91.46
2023-01-07T02:21:18.112Z,91.47
2023-01-07T02:24:02.443Z,91.53
2023-01-07T02:27:10.285Z,91.49
2023-01-07T02:29:59.600Z,91.76
2023-01-07T02:32:44.039Z,91.70
2023-01-07T02:35:44.683Z,91.55
2023-01-07T02:38:23.352Z,91.34
2023-01-07T02:41:11.257Z,91.42
2023-01-07T02:43:49.824Z,91.51
2023-01-07T02:46:38.325Z,91.52
2023-01-07T02:49:12.187Z,91.56
2023-01-07T02:51:42.816Z,91.80
2023-01-07T02:54:23.366Z,91.96
2023-01-07T02:57:20.671Z,91.89
2023-01-07T03:00:08.788Z,91.96
2023-01-07T03:03:02.952Z,92.29
2023-01-07T03:05:47.499Z,92.02
2023-01-07T03:08:53.758Z,91.97
2023-01-07T03:11:24.551Z,91.97
2023-01-07T03:14:03.144Z,91.88
2023-01-07T03:16:40.563Z,92.07
2023-01-07T03:19:16.516Z,92.24
2023-01-07T03:21:47.876Z,92.46
2023-01-07T03:24:18.189Z,92.60
2023-01-07T03:26:49.982Z,92.69
2023-01-07T03:29:20.200Z,92.52
2023-01-07T03:32:00.707Z,92.48
2023-01-07T03:34:30.530Z,92.70
2023-01-07T03:37:03.937Z,92.84
2023-01-07T03:39:35.408Z,92.94
2023-01-07T03:42:26.795Z,92.98
2023-01-07T03:44:56.507Z,93.04
2023-01-07T03:47:29.184Z,93.03
2023-01-07T03:49:59.041Z,92.72
2023-01-07T03:52:28.447Z,92.71
2023-01-07T03:54:58.460Z,92.73
2023-01-07T03:57:29.212Z,92.65
2023-01-07T04:00:00.212Z,92.57
2023-01-07T04:02:30.578Z,92.79
2023-01-07T04:04:59.824Z,92.78
2023-01-07T04:07:29.107Z,92.74
2023-01-07T04:09:58.953Z,92.76
2023-01-07T04:12:28.495Z,92.84
2023-01-07T04:14:59.324Z,92.72
2023-01-07T04:17:29.486Z,92.80
2023-01-07T04:19:59.687Z,92.78
2023-01-07T04:22:29.130Z,92.69
2023-01-07T04:24:58.544Z,92.78
2023-01-07T04:27:29.809Z,92.68
2023-01-07T04:29:59.487Z,92.99
2023-01-07T04:32:30.755Z,92.89
2023-01-07T04:35:00.417Z,92.87
2023-01-07T04:37:30.109Z,92.93
2023-01-07T04:39:59.646Z,92.53
2023-01-07T04:42:30.566Z,92.61
2023-01-07T04:45:00.493Z,92.56
2023-01-07T04:47:29.701Z,92.70
2023-01-07T04:49:59.826Z,92.53
2023-01-07T04:52:30.770Z,92.29
2023-01-07T04:55:00.317Z,92.09
2023-01-07T04:57:29.602Z,92.22
2023-01-07T05:00:00.394Z,91.93
2023-01-07T05:02:30.667Z,91.57
2023-01-07T05:05:00.142Z,91.20
2023-01-07T05:07:29.931Z,91.05
2023-01-07T05:09:59.795Z,90.97
2023-01-07T05:12:30.690Z,90.70
2023-01-07T05:15:00.160Z,90.67
2023-01-07T05:17:29.805Z,90.34
2023-01-07T05:19:59.654Z,90.48
2023-01-07T05:22:29.050Z,90.56
2023-01-07T05:24:58.942Z,90.17
2023-01-07T05:27:28.916Z,90.19
2023-01-07T05:29:59.742Z,90.00
2023-01-07T05:32:28.967Z,89.78
2023-01-07T05:34:58.898Z,89.48
2023-01-07T05:37:29.360Z,89.73
2023-01-07T05:39:59.105Z,89.36
2023-01-07T05:42:28.407Z,89.42
2023-01-07T05:44:57.907Z,89.33
2023-01-07T05:47:27.266Z,89.36
2023-01-07T05:49:56.651Z,89.11
2023-01-07T05:52:26.487Z,88.83
2023-01-07T05:54:55.688Z,88.34
2023-01-07T05:57:24.959Z,88.37
2023-01-07T05:59:54.132Z,88.20
2023-01-07T06:02:23.647Z,87.97
2023-01-07T06:04:52.990Z,87.68
2023-01-07T06:07:22.340Z,87.85
2023-01-07T06:09:51.832Z,87.81
2023-01-07T06:12:21.053Z,87.99
2023-01-07T06:14:50.239Z,87.34
2023-01-07T06:17:19.452Z,87.35
2023-01-07T06:19:48.719Z,87.07
2023-01-07T06:22:17.932Z,86.70
2023-01-07T06:24:47.335Z,86.19
2023-01-07T06:27:16.676Z,85.92
2023-01-07T06:29:46.125Z,86.19
2023-01-07T06:32:15.301Z,85.54
2023-01-07T06:34:44.677Z,85.70
2023-01-07T06:37:15.135Z,85.62
2023-01-07T06:39:44.624Z,85.47
2023-01-07T06:42:13.859Z,85.29
2023-01-07T06:44:43.472Z,84.85
2023-01-07T06:47:12.802Z,84.90
2023-01-07T06:49:42.242Z,84.63
2023-01-07T06:52:11.465Z,84.51
2023-01-07T06:54:40.941Z,84.30
2023-01-07T06:57:10.123Z,84.43
2023-01-07T06:59:39.353Z,84.40
2023-01-07T07:02:08.895Z,84.60
2023-01-07T07:04:38.539Z,84.54
2023-01-07T07:07:07.862Z,84.25
2023-01-07T07:09:37.163Z,84.10
2023-01-07T07:12:06.611Z,84.39
2023-01-07T07:14:36.727Z,84.19
2023-01-07T07:17:06.277Z,84.39
2023-01-07T07:19:36.065Z,84.01
2023-01-07T07:22:05.258Z,83.94
2023-01-07T07:24:34.784Z,84.23
2023-01-07T07:27:04.099Z,83.46
2023-01-07T07:29:33.341Z,83.28
2023-01-07T07:32:03.207Z,83.23
2023-01-07T07:34:34.691Z,83.06
2023-01-07T07:37:11.509Z,83.24
2023-01-07T07:39:41.147Z,83.55
2023-01-07T07:42:10.358Z,83.39
2023-01-07T07:44:41.410Z,83.86
2023-01-07T07:47:12.141Z,84.04
2023-01-07T07:49:41.753Z,84.27
2023-01-07T07:52:10.960Z,84.17
2023-01-07T07:54:41.028Z,84.03
2023-01-07T07:57:10.220Z,84.04
2023-01-07T07:59:40.374Z,83.32
2023-01-07T08:02:14.287Z,82.81
2023-01-07T08:04:44.134Z,82.89
2023-01-07T08:07:13.701Z,82.58
2023-01-07T08:09:44.833Z,82.63
2023-01-07T08:12:14.016Z,82.73
2023-01-07T08:14:43.961Z,82.71
2023-01-07T08:17:13.251Z,82.51
2023-01-07T08:19:42.897Z,81.96
2023-01-07T08:22:12.136Z,82.08
2023-01-07T08:24:41.551Z,82.11
2023-01-07T08:27:10.740Z,82.00
2023-01-07T08:29:40.255Z,81.21
2023-01-07T08:32:09.447Z,81.43
2023-01-07T08:34:38.674Z,81.16
2023-01-07T08:37:07.888Z,81.36
2023-01-07T08:39:37.396Z,81.19
2023-01-07T08:42:06.924Z,81.22
2023-01-07T08:44:36.121Z,80.57
2023-01-07T08:47:05.776Z,80.65
2023-01-07T08:49:35.063Z,80.59
2023-01-07T08:52:04.343Z,80.36
2023-01-07T08:54:34.037Z,79.63
2023-01-07T08:57:03.193Z,79.71
2023-01-07T08:59:32.428Z,79.62
2023-01-07T09:02:01.781Z,78.79
2023-01-07T09:04:31.163Z,78.81
2023-01-07T09:07:00.389Z,78.79
2023-01-07T09:09:29.591Z,77.52
2023-01-07T09:11:58.803Z,77.16
2023-01-07T09:14:28.416Z,77.24
2023-01-07T09:16:57.651Z,77.29
2023-01-07T09:19:27.010Z,76.74
2023-01-07T09:21:56.661Z,76.92
2023-01-07T09:24:26.568Z,76.94
2023-01-07T09:26:55.779Z,76.22
2023-01-07T09:29:25.460Z,76.03
2023-01-07T09:31:54.890Z,76.12
2023-01-07T09:34:24.340Z,75.75
2023-01-07T09:36:53.587Z,76.06
2023-01-07T09:39:23.555Z,75.81
2023-01-07T09:42:11.008Z,76.19
2023-01-07T09:45:11.322Z,75.59
2023-01-07T09:47:43.523Z,75.10
2023-01-07T09:50:19.150Z,73.94
2023-01-07T09:52:51.582Z,74.57
2023-01-07T09:56:10.909Z,74.17
2023-01-07T09:58:18.317Z,73.49
2023-01-07T10:00:59.688Z,74.25
2023-01-07T10:03:35.366Z,74.50
2023-01-07T10:06:10.569Z,73.51
2023-01-07T10:08:52.250Z,73.39
2023-01-07T10:11:30.456Z,72.00
2023-01-07T10:14:25.530Z,71.51
2023-01-07T10:17:04.176Z,72.55
2023-01-07T10:19:45.710Z,71.90
2023-01-07T10:22:32.250Z,71.19
2023-01-07T10:25:06.748Z,70.60
2023-01-07T10:27:38.956Z,70.24
2023-01-07T10:30:14.117Z,69.90
2023-01-07T10:32:43.507Z,69.44
2023-01-07T10:35:19.583Z,68.78
2023-01-07T10:37:48.908Z,68.55
2023-01-07T10:40:33.516Z,67.76
2023-01-07T10:43:24.157Z,68.92
2023-01-07T10:46:11.673Z,67.90
2023-01-07T10:49:02.587Z,68.22
2023-01-07T10:51:41.485Z,69.06
2023-01-07T10:54:22.945Z,67.83
2023-01-07T10:56:57.346Z,66.92
2023-01-07T10:59:27.268Z,67.03
2023-01-07T11:01:59.436Z,66.29
2023-01-07T11:04:28.787Z,66.53
2023-01-07T11:07:13.814Z,65.99
2023-01-07T11:09:44.941Z,65.21
2023-01-07T11:12:39.196Z,65.21
2023-01-07T11:15:11.736Z,66.93
2023-01-07T11:17:41.684Z,67.70
2023-01-07T11:20:12.278Z,66.86
2023-01-07T11:22:41.601Z,67.38
2023-01-07T11:25:28.770Z,67.78
2023-01-07T11:28:00.664Z,67.87
2023-01-07T11:30:34.792Z,67.29
2023-01-07T11:33:06.264Z,68.02
2023-01-07T11:35:37.074Z,67.84
2023-01-07T11:38:09.474Z,69.20
2023-01-07T11:40:39.054Z,68.52
2023-01-07T11:43:20.618Z,68.46
2023-01-07T11:46:19.907Z,68.76
2023-01-07T11:48:42.196Z,69.23
2023-01-07T11:51:12.178Z,68.88
2023-01-07T11:53:44.308Z,68.89
2023-01-07T11:56:19.229Z,69.19
2023-01-07T11:58:50.715Z,69.27
2023-01-07T12:01:23.093Z,68.87
2023-01-07T12:04:04.311Z,68.92
2023-01-07T12:06:39.093Z,69.07
2023-01-07T12:09:14.541Z,69.22
2023-01-07T12:11:45.436Z,68.96
2023-01-07T12:14:23.864Z,68.62
2023-01-07T12:16:54.320Z,68.36
2023-01-07T12:19:28.331Z,68.43
2023-01-07T12:22:03.522Z,68.23
2023-01-07T12:24:44.844Z,68.35
2023-01-07T12:27:49.096Z,68.85
2023-01-07T12:30:24.453Z,68.45
2023-01-07T12:33:16.535Z,68.39
2023-01-07T12:35:46.433Z,67.93
2023-01-07T12:38:21.533Z,67.30
2023-01-07T12:40:52.901Z,67.61
2023-01-07T12:43:36.348Z,67.51
2023-01-07T12:46:08.354Z,67.27
2023-01-07T12:49:00.472Z,68.03
2023-01-07T12:51:42.039Z,67.97
2023-01-07T12:54:23.594Z,66.86
2023-01-07T12:57:01.189Z,67.76
2023-01-07T12:59:47.128Z,66.90
2023-01-07T13:02:20.710Z,67.34
2023-01-07T13:05:11.039Z,66.95
2023-01-07T13:07:55.132Z,67.86
2023-01-07T13:10:36.545Z,67.64
2023-01-07T13:13:14.029Z,67.32
2023-01-07T13:15:43.502Z,68.20
2023-01-07T13:18:15.760Z,67.48
2023-01-07T13:20:54.362Z,67.86
2023-01-07T13:23:46.096Z,67.92
2023-01-07T13:26:40.991Z,67.47
2023-01-07T13:29:21.936Z,67.89
2023-01-07T13:32:06.924Z,67.75
2023-01-07T13:35:03.341Z,67.68
2023-01-07T13:37:52.616Z,67.27
2023-01-07T13:40:34.249Z,66.85
2023-01-07T13:43:21.785Z,68.29
2023-01-07T13:45:57.334Z,68.37
2023-01-07T13:48:28.228Z,68.09
2023-01-07T13:51:00.541Z,68.36
2023-01-07T13:53:36.110Z,68.81
2023-01-07T13:56:23.705Z,68.29
2023-01-07T13:58:57.163Z,69.08
2023-01-07T14:01:35.388Z,68.64
2023-01-07T14:04:10.791Z,68.09
2023-01-07T14:06:51.200Z,67.98
2023-01-07T14:09:26.234Z,68.44
2023-01-07T14:12:18.519Z,68.94
2023-01-07T14:14:53.784Z,68.51
2023-01-07T14:17:59.218Z,67.94
2023-01-07T14:20:32.521Z,67.97
2023-01-07T14:23:14.146Z,68.28
2023-01-07T14:26:03.106Z,68.30
2023-01-07T14:28:52.445Z,68.59
2023-01-07T14:31:23.678Z,68.31
2023-01-07T14:33:57.737Z,68.86
2023-01-07T14:36:46.702Z,68.97
2023-01-07T14:39:36.796Z,68.78
2023-01-07T14:42:24.169Z,68.98
2023-01-07T14:44:53.477Z,69.41
2023-01-07T14:47:48.273Z,68.87
2023-01-07T14:50:48.061Z,69.53
2023-01-07T14:53:35.156Z,69.24
2023-01-07T14:56:16.436Z,69.04
2023-01-07T14:59:05.488Z,69.33
2023-01-07T15:01:41.041Z,69.68
2023-01-07T15:04:42.102Z,69.67
2023-01-07T15:07:16.991Z,70.14
2023-01-07T15:10:07.130Z,70.66
2023-01-07T15:12:55.389Z,72.02
2023-01-07T15:15:52.980Z,72.28
2023-01-07T15:18:21.949Z,73.14
2023-01-07T15:21:13.180Z,73.53
2023-01-07T15:24:01.129Z,73.14
2023-01-07T15:26:36.068Z,74.03
2023-01-07T15:29:34.001Z,73.57
2023-01-07T15:32:18.617Z,74.93
2023-01-07T15:34:48.692Z,73.85
2023-01-07T15:37:19.300Z,73.56
2023-01-07T15:39:52.135Z,74.01
2023-01-07T15:42:23.659Z,74.72
2023-01-07T15:44:55.320Z,76.86
2023-01-07T15:47:42.037Z,78.16
2023-01-07T15:50:23.528Z,79.76
2023-01-07T15:53:06.290Z,79.75
2023-01-07T15:55:39.793Z,80.39
2023-01-07T15:58:22.131Z,80.12
2023-01-07T16:00:53.575Z,80.49
2023-01-07T16:03:23.787Z,81.92
2023-01-07T16:05:53.433Z,81.51
2023-01-07T16:08:26.124Z,81.54
2023-01-07T16:11:01.250Z,81.16
2023-01-07T16:13:31.868Z,81.50
2023-01-07T16:16:03.581Z,80.87
2023-01-07T16:18:33.229Z,81.09
2023-01-07T16:21:07.448Z,82.31
2023-01-07T16:23:38.232Z,83.74
2023-01-07T16:26:13.907Z,84.47
2023-01-07T16:28:49.132Z,84.52
2023-01-07T16:31:21.619Z,84.46
2023-01-07T16:33:56.831Z,85.33
2023-01-07T16:36:31.987Z,86.19
2023-01-07T16:39:04.369Z,85.91
2023-01-07T16:41:33.847Z,85.92
2023-01-07T16:44:03.227Z,84.71
2023-01-07T16:46:35.954Z,85.62
2023-01-07T16:49:14.450Z,86.71
2023-01-07T16:51:56.006Z,87.10
2023-01-07T16:54:37.440Z,86.69
2023-01-07T16:57:16.435Z,86.27
2023-01-07T16:59:53.763Z,86.00
2023-01-07T17:02:41.354Z,85.66
2023-01-07T17:05:13.307Z,85.77
2023-01-07T17:07:43.798Z,86.52
2023-01-07T17:10:32.788Z,86.59
2023-01-07T17:13:08.276Z,86.20
2023-01-07T17:15:41.997Z,86.26
2023-01-07T17:18:17.710Z,86.59
2023-01-07T17:20:54.813Z,86.69
2023-01-07T17:23:30.187Z,86.32
2023-01-07T17:26:20.603Z,85.80
2023-01-07T17:28:58.853Z,86.18
2023-01-07T17:31:28.665Z,85.74
2023-01-07T17:33:58.298Z,86.85
2023-01-07T17:36:28.170Z,87.23
2023-01-07T17:38:57.500Z,86.86
2023-01-07T17:41:44.552Z,87.20
2023-01-07T17:44:14.955Z,87.15
2023-01-07T17:46:44.174Z,87.63
2023-01-07T17:49:13.881Z,87.71
2023-01-07T17:51:45.467Z,86.81
2023-01-07T17:54:17.895Z,87.37
2023-01-07T17:56:47.230Z,87.13
2023-01-07T17:59:18.689Z,87.32
2023-01-07T18:01:48.434Z,86.73
2023-01-07T18:04:18.210Z,86.76
2023-01-07T18:06:47.412Z,86.95
2023-01-07T18:09:16.644Z,86.64
2023-01-07T18:12:04.940Z,86.69
2023-01-07T18:14:34.391Z,86.35
2023-01-07T18:17:03.610Z,86.49
2023-01-07T18:19:33.106Z,86.42
2023-01-07T18:22:02.286Z,85.98
2023-01-07T18:24:31.807Z,86.33
2023-01-07T18:27:00.987Z,85.33
2023-01-07T18:29:30.236Z,84.35
2023-01-07T18:31:59.591Z,84.52
2023-01-07T18:34:29.633Z,84.71
2023-01-07T18:36:58.871Z,84.34
2023-01-07T18:39:28.955Z,84.64
2023-01-07T18:41:58.289Z,83.98
2023-01-07T18:44:27.940Z,83.65
2023-01-07T18:46:57.223Z,83.67
2023-01-07T18:49:26.736Z,83.52
2023-01-07T18:51:56.299Z,82.72
2023-01-07T18:54:25.636Z,83.17
2023-01-07T18:56:54.836Z,82.90
2023-01-07T18:59:24.969Z,83.27
2023-01-07T19:01:56.100Z,82.40
2023-01-07T19:04:26.122Z,82.24
2023-01-07T19:06:55.573Z,82.12
2023-01-07T19:09:24.933Z,82.58
2023-01-07T19:11:54.139Z,82.00
2023-01-07T19:14:23.469Z,83.38
2023-01-07T19:16:53.515Z,83.92
2023-01-07T19:19:23.147Z,84.42
2023-01-07T19:21:52.465Z,83.81
2023-01-07T19:24:22.656Z,83.97
2023-01-07T19:26:52.829Z,84.21
2023-01-07T19:29:22.282Z,83.78
2023-01-07T19:31:51.647Z,83.62
2023-01-07T19:34:21.134Z,83.19
2023-01-07T19:36:50.849Z,82.72
2023-01-07T19:39:22.778Z,82.91
2023-01-07T19:41:52.653Z,83.54
2023-01-07T19:44:22.131Z,82.75
2023-01-07T19:46:51.675Z,83.33
2023-01-07T19:49:20.980Z,83.18
2023-01-07T19:51:52.684Z,83.19
2023-01-07T19:54:22.206Z,83.34
2023-01-07T19:56:51.685Z,83.59
2023-01-07T19:59:21.392Z,83.66
2023-01-07T20:01:50.805Z,84.56
2023-01-07T20:04:20.435Z,84.45
2023-01-07T20:06:51.023Z,84.61
2023-01-07T20:09:20.602Z,84.88
2023-01-07T20:11:50.075Z,85.14
2023-01-07T20:14:19.276Z,85.78
2023-01-07T20:16:48.844Z,86.03
2023-01-07T20:19:18.274Z,86.10
2023-01-07T20:21:47.522Z,85.90
2023-01-07T20:24:17.197Z,85.92
2023-01-07T20:26:46.433Z,86.06
2023-01-07T20:29:15.921Z,85.66
2023-01-07T20:31:45.337Z,85.85
2023-01-07T20:34:14.807Z,85.68
2023-01-07T20:36:44.037Z,85.69
2023-01-07T20:39:13.732Z,85.43
2023-01-07T20:41:43.918Z,85.53
2023-01-07T20:44:13.475Z,85.71
2023-01-07T20:46:43.101Z,85.73
2023-01-07T20:49:13.014Z,85.82
2023-01-07T20:51:42.810Z,84.76
2023-01-07T20:54:13.162Z,85.02
2023-01-07T20:56:43.261Z,84.56
2023-01-07T20:59:14.359Z,84.33
2023-01-07T21:01:43.887Z,84.68
2023-01-07T21:04:13.789Z,84.31
2023-01-07T21:06:43.635Z,84.32
2023-01-07T21:09:13.038Z,84.13
2023-01-07T21:11:43.416Z,84.42
2023-01-07T21:14:12.762Z,84.51
2023-01-07T21:16:42.197Z,83.95
2023-01-07T21:19:12.033Z,83.84
2023-01-07T21:21:41.366Z,83.53
2023-01-07T21:24:12.159Z,83.13
2023-01-07T21:26:41.475Z,83.50
2023-01-07T21:29:10.993Z,83.50
2023-01-07T21:31:40.306Z,83.26
2023-01-07T21:34:11.015Z,83.52
2023-01-07T21:36:41.766Z,84.16
2023-01-07T21:39:13.340Z,83.59
2023-01-07T21:41:42.646Z,84.03
2023-01-07T21:44:13.130Z,83.66
2023-01-07T21:46:42.417Z,83.76
2023-01-07T21:49:11.871Z,84.09
2023-01-07T21:51:41.428Z,83.83
2023-01-07T21:54:11.163Z,84.33
2023-01-07T21:56:40.574Z,83.85
2023-01-07T21:59:10.271Z,83.96
2023-01-07T22:01:40.213Z,84.57
2023-01-07T22:04:10.357Z,84.68
2023-01-07T22:06:39.940Z,84.56
2023-01-07T22:09:13.469Z,84.47
2023-01-07T22:11:44.157Z,84.51
2023-01-07T22:14:16.664Z,84.53
2023-01-07T22:16:48.819Z,84.38
2023-01-07T22:19:16.913Z,84.61
2023-01-07T22:21:46.461Z,84.41
2023-01-07T22:24:15.736Z,84.49
2023-01-07T22:26:45.264Z,84.71
2023-01-07T22:29:14.991Z,84.61
2023-01-07T22:31:46.156Z,84.12
2023-01-07T22:34:15.771Z,84.63
2023-01-07T22:36:57.338Z,84.51
2023-01-07T22:39:36.253Z,84.44
2023-01-07T22:42:14.400Z,83.72
2023-01-07T22:44:49.327Z,83.77
2023-01-07T22:47:20.897Z,84.50
2023-01-07T22:49:50.861Z,84.23
2023-01-07T22:52:20.513Z,84.14
2023-01-07T22:54:50.181Z,84.68
2023-01-07T22:57:19.758Z,84.11
2023-01-07T22:59:49.264Z,84.67
2023-01-07T23:02:18.833Z,84.31
2023-01-07T23:04:48.396Z,84.00
2023-01-07T23:07:17.637Z,84.14
2023-01-07T23:09:47.341Z,83.69
2023-01-07T23:12:16.558Z,83.90
2023-01-07T23:14:45.845Z,84.17
2023-01-07T23:17:15.258Z,84.20
2023-01-07T23:19:44.489Z,83.90
2023-01-07T23:22:13.723Z,83.84
2023-01-07T23:24:43.212Z,83.60
2023-01-07T23:27:14.030Z,83.77
2023-01-07T23:29:43.240Z,84.08
2023-01-07T23:32:12.793Z,83.46
2023-01-07T23:34:42.041Z,83.57
2023-01-07T23:37:11.910Z,83.81
2023-01-07T23:39:41.248Z,84.43
2023-01-07T23:42:10.513Z,84.42
2023-01-07T23:44:39.985Z,84.21
2023-01-07T23:47:09.218Z,84.52
2023-01-07T23:49:38.588Z,84.07
2023-01-07T23:52:08.211Z,84.53
2023-01-07T23:54:37.807Z,84.29
2023-01-07T23:57:07.210Z,83.98
2023-01-07T23:59:36.516Z,84.13
